NZAA/AKL METAR and TAF weather

Enter ICAO airport designator
Station Type Date Time Source
NZAA METAR 2019/10/15 18:30 UTC NOAA

NZAA 151830Z AUTO 24018KT 9999 FEW016/// 14/12 Q0996 TEMPO FM1900 BKN014


Station Type Date Time Source
NZAA Decoded METAR 2019/10/15 18:30 UTC NOAA

Auckland Airport, New Zealand (NZAA) 37-01S 174-48E 6M
Oct 15, 2019 - 02:30 PM EDT / 2019.10.15 1830 UTC
Wind: from the WSW (240 degrees) at 21 MPH (18 KT):0
Visibility: greater than 7 mile(s):0
Sky conditions: mostly clear
Temperature: 57 F (14 C)
Dew Point: 53 F (12 C)
Relative Humidity: 87%
Pressure (altimeter): 29.41 in. Hg (0996 hPa)
ob: NZAA 151830Z AUTO 24018KT 9999 FEW016/// 14/12 Q0996 TEMPO FM1900 BKN014
cycle: 18

Station Type Date Time Source
NZAA TAF 2019/10/15 18:26 UTC NOAA

TAF NZAA 151722Z 1518/1618 22015KT CAVOK
TEMPO 1518/1521 BKN014
FM151900 23015G25KT 9999 BKN020
FM152200 24020G35KT 9999 -SHRA FEW015 BKN030
BECMG 1606/1608 24015G25KT

Example: see airport list